createdAt,value
2018-12-31T00:00:08.815Z,69.10
2018-12-31T00:02:39.770Z,69.10
2018-12-31T00:05:06.933Z,69.10
2018-12-31T00:07:53.520Z,69.40
2018-12-31T00:10:21.073Z,69.50
2018-12-31T00:12:49.289Z,69.60
2018-12-31T00:15:16.221Z,69.60
2018-12-31T00:17:43.299Z,69.50
2018-12-31T00:20:10.437Z,69.60
2018-12-31T00:22:37.849Z,69.90
2018-12-31T00:25:04.761Z,70.00
2018-12-31T00:27:31.663Z,69.40
2018-12-31T00:29:58.929Z,70.00
2018-12-31T00:32:26.186Z,70.20
2018-12-31T00:34:53.119Z,70.20
2018-12-31T00:37:20.074Z,70.20
2018-12-31T00:39:47.026Z,70.20
2018-12-31T00:42:13.978Z,70.60
2018-12-31T00:44:41.474Z,70.70
2018-12-31T00:47:09.396Z,70.80
2018-12-31T00:49:36.330Z,70.90
2018-12-31T00:52:03.375Z,71.90
2018-12-31T00:54:30.958Z,70.80
2018-12-31T00:56:58.291Z,70.90
2018-12-31T00:59:25.923Z,70.90
2018-12-31T01:01:53.487Z,70.90
2018-12-31T01:04:20.407Z,71.00
2018-12-31T01:06:47.345Z,70.80
2018-12-31T01:09:14.552Z,70.90
2018-12-31T01:11:41.491Z,70.60
2018-12-31T01:14:08.691Z,70.70
2018-12-31T01:16:35.614Z,70.60
2018-12-31T01:19:02.637Z,70.50
2018-12-31T01:21:29.823Z,70.70
2018-12-31T01:23:56.779Z,70.80
2018-12-31T01:26:23.686Z,70.90
2018-12-31T01:28:50.902Z,71.20
2018-12-31T01:31:17.855Z,71.40
2018-12-31T01:33:44.973Z,71.40
2018-12-31T01:36:12.255Z,71.60
2018-12-31T01:38:39.185Z,71.70
2018-12-31T01:41:06.130Z,71.60
2018-12-31T01:43:33.391Z,71.60
2018-12-31T01:46:00.799Z,71.50
2018-12-31T01:48:27.716Z,71.20
2018-12-31T01:50:54.956Z,71.10
2018-12-31T01:53:21.849Z,71.10
2018-12-31T01:55:48.772Z,71.30
2018-12-31T01:58:15.682Z,71.70
2018-12-31T02:00:42.655Z,71.80
2018-12-31T02:03:09.616Z,71.90
2018-12-31T02:05:36.863Z,72.00
2018-12-31T02:08:03.877Z,72.10
2018-12-31T02:10:31.545Z,72.20
2018-12-31T02:12:58.568Z,72.30
2018-12-31T02:15:25.476Z,72.20
2018-12-31T02:17:52.722Z,72.20
2018-12-31T02:20:19.745Z,72.20
2018-12-31T02:22:46.661Z,72.10
2018-12-31T02:25:13.834Z,72.10
2018-12-31T02:27:40.766Z,72.30
2018-12-31T02:30:07.712Z,72.50
2018-12-31T02:32:34.592Z,72.50
2018-12-31T02:35:01.670Z,72.70
2018-12-31T02:37:28.889Z,72.80
2018-12-31T02:39:55.839Z,72.70
2018-12-31T02:42:22.849Z,72.70
2018-12-31T02:44:50.456Z,72.70
2018-12-31T02:47:17.389Z,72.80
2018-12-31T02:49:44.268Z,72.70
2018-12-31T02:52:11.163Z,72.80
2018-12-31T02:54:38.406Z,72.70
2018-12-31T02:57:05.573Z,72.70
2018-12-31T02:59:32.515Z,72.90
2018-12-31T03:01:59.970Z,73.20
2018-12-31T03:04:26.929Z,73.40
2018-12-31T03:06:59.845Z,74.40
2018-12-31T03:09:26.758Z,73.60
2018-12-31T03:11:53.993Z,73.80
2018-12-31T03:14:21.602Z,74.00
2018-12-31T03:16:48.604Z,74.10
2018-12-31T03:19:15.539Z,74.30
2018-12-31T03:21:42.492Z,74.30
2018-12-31T03:24:09.469Z,75.10
2018-12-31T03:26:36.689Z,74.50
2018-12-31T03:29:03.659Z,74.50
2018-12-31T03:31:31.100Z,74.80
2018-12-31T03:33:58.543Z,74.90
2018-12-31T03:36:25.979Z,75.00
2018-12-31T03:38:54.280Z,75.20
2018-12-31T03:41:21.827Z,75.00
2018-12-31T03:43:48.766Z,75.10
2018-12-31T03:46:16.236Z,74.80
2018-12-31T03:48:43.864Z,74.80
2018-12-31T03:51:11.258Z,74.70
2018-12-31T03:53:38.228Z,74.60
2018-12-31T03:56:05.454Z,74.50
2018-12-31T03:58:32.963Z,74.50
2018-12-31T04:01:00.214Z,74.40
2018-12-31T04:03:27.541Z,74.30
2018-12-31T04:05:54.571Z,74.20
2018-12-31T04:08:22.036Z,74.20
2018-12-31T04:10:49.134Z,74.20
2018-12-31T04:13:16.450Z,74.20
2018-12-31T04:15:43.543Z,74.20
2018-12-31T04:18:10.813Z,74.30
2018-12-31T04:20:37.727Z,74.40
2018-12-31T04:23:04.922Z,74.40
2018-12-31T04:25:31.982Z,74.40
2018-12-31T04:27:59.422Z,74.30
2018-12-31T04:30:27.037Z,74.30
2018-12-31T04:32:54.098Z,74.20
2018-12-31T04:35:21.131Z,74.00
2018-12-31T04:37:48.096Z,73.80
2018-12-31T04:40:15.122Z,74.00
2018-12-31T04:42:42.079Z,74.00
2018-12-31T04:45:09.019Z,74.00
2018-12-31T04:47:35.955Z,73.90
2018-12-31T04:50:03.785Z,72.90
2018-12-31T04:52:30.911Z,73.50
2018-12-31T04:54:58.190Z,73.50
2018-12-31T04:57:25.511Z,74.50
2018-12-31T04:59:52.903Z,73.70
2018-12-31T05:02:20.267Z,73.80
2018-12-31T05:05:00.523Z,73.90
2018-12-31T05:07:27.853Z,73.80
2018-12-31T05:09:55.364Z,73.70
2018-12-31T05:12:22.466Z,73.50
2018-12-31T05:14:50.190Z,73.50
2018-12-31T05:17:17.153Z,73.80
2018-12-31T05:19:44.087Z,74.00
2018-12-31T05:22:11.126Z,74.30
2018-12-31T05:24:38.031Z,74.60
2018-12-31T05:27:05.447Z,74.70
2018-12-31T05:29:32.446Z,75.00
2018-12-31T05:31:59.659Z,75.60
2018-12-31T05:34:26.877Z,75.60
2018-12-31T05:36:53.863Z,76.00
2018-12-31T05:39:20.790Z,76.40
2018-12-31T05:41:47.842Z,76.60
2018-12-31T05:44:14.805Z,76.70
2018-12-31T05:46:42.257Z,76.90
2018-12-31T05:49:09.653Z,76.90
2018-12-31T05:51:36.679Z,76.90
2018-12-31T05:54:03.831Z,77.00
2018-12-31T05:56:31.272Z,77.00
2018-12-31T05:58:58.263Z,77.00
2018-12-31T06:01:25.585Z,76.90
2018-12-31T06:03:53.283Z,76.90
2018-12-31T06:06:20.311Z,76.70
2018-12-31T06:08:47.343Z,76.50
2018-12-31T06:11:14.635Z,76.50
2018-12-31T06:13:41.571Z,76.60
2018-12-31T06:16:08.555Z,76.70
2018-12-31T06:18:35.510Z,76.80
2018-12-31T06:21:02.795Z,76.90
2018-12-31T06:23:29.718Z,76.90
2018-12-31T06:25:56.794Z,76.60
2018-12-31T06:28:23.736Z,76.60
2018-12-31T06:30:50.791Z,76.50
2018-12-31T06:33:17.931Z,76.60
2018-12-31T06:35:45.003Z,76.80
2018-12-31T06:38:11.943Z,77.00
2018-12-31T06:40:38.887Z,77.20
2018-12-31T06:43:06.270Z,77.40
2018-12-31T06:45:33.162Z,77.60
2018-12-31T06:48:00.105Z,77.90
2018-12-31T06:50:27.030Z,77.80
2018-12-31T06:52:53.947Z,77.70
2018-12-31T06:55:21.194Z,77.70
2018-12-31T06:57:48.145Z,77.80
2018-12-31T07:00:15.363Z,77.80
2018-12-31T07:02:42.283Z,78.00
2018-12-31T07:05:09.410Z,79.20
2018-12-31T07:07:37.334Z,78.50
2018-12-31T07:10:05.048Z,78.60
2018-12-31T07:12:32.038Z,78.50
2018-12-31T07:14:59.347Z,78.80
2018-12-31T07:17:26.284Z,79.00
2018-12-31T07:19:53.323Z,79.10
2018-12-31T07:22:20.379Z,79.30
2018-12-31T07:24:47.338Z,79.40
2018-12-31T07:27:14.429Z,79.60
2018-12-31T07:29:41.365Z,79.50
2018-12-31T07:32:08.327Z,79.40
2018-12-31T07:34:35.275Z,79.10
2018-12-31T07:37:02.201Z,79.00
2018-12-31T07:39:29.245Z,79.10
2018-12-31T07:41:56.158Z,79.10
2018-12-31T07:44:23.134Z,79.20
2018-12-31T07:46:50.068Z,80.00
2018-12-31T07:49:17.496Z,79.00
2018-12-31T07:51:44.451Z,79.00
2018-12-31T07:54:11.707Z,79.00
2018-12-31T07:56:38.639Z,78.60
2018-12-31T07:59:05.630Z,78.50
2018-12-31T08:01:32.955Z,78.30
2018-12-31T08:03:59.887Z,78.30
2018-12-31T08:06:27.311Z,78.20
2018-12-31T08:08:54.490Z,78.10
2018-12-31T08:11:21.434Z,78.80
2018-12-31T08:13:48.487Z,77.90
2018-12-31T08:16:15.740Z,78.60
2018-12-31T08:18:42.676Z,77.90
2018-12-31T08:21:13.779Z,77.80
2018-12-31T08:23:40.806Z,77.90
2018-12-31T08:26:07.726Z,78.20
2018-12-31T08:28:34.647Z,78.90
2018-12-31T08:31:01.683Z,78.00
2018-12-31T08:33:28.823Z,78.00
2018-12-31T08:35:56.604Z,78.10
2018-12-31T08:38:23.895Z,77.40
2018-12-31T08:40:51.202Z,77.80
2018-12-31T08:43:18.251Z,77.90
2018-12-31T08:45:45.190Z,78.00
2018-12-31T08:48:12.226Z,78.00
2018-12-31T08:50:39.851Z,78.20
2018-12-31T08:53:07.050Z,78.20
2018-12-31T08:55:34.017Z,78.10
2018-12-31T08:58:01.040Z,78.10
2018-12-31T09:00:28.431Z,78.00
2018-12-31T09:02:56.059Z,78.00
2018-12-31T09:05:24.023Z,78.20
2018-12-31T09:07:51.330Z,78.30
2018-12-31T09:10:18.387Z,78.40
2018-12-31T09:12:45.411Z,78.40
2018-12-31T09:15:12.354Z,78.60
2018-12-31T09:17:39.272Z,78.70
2018-12-31T09:20:07.872Z,79.00
2018-12-31T09:22:35.050Z,79.30
2018-12-31T09:25:01.997Z,79.40
2018-12-31T09:27:29.131Z,79.40
2018-12-31T09:29:56.079Z,79.50
2018-12-31T09:32:23.567Z,79.70
2018-12-31T09:34:50.470Z,79.80
2018-12-31T09:37:17.671Z,80.00
2018-12-31T09:39:44.615Z,80.00
2018-12-31T09:42:11.877Z,80.20
2018-12-31T09:44:39.548Z,80.40
2018-12-31T09:47:06.788Z,80.50
2018-12-31T09:49:33.802Z,80.50
2018-12-31T09:52:00.850Z,80.40
2018-12-31T09:54:47.415Z,80.10
2018-12-31T09:57:14.895Z,80.00
2018-12-31T09:59:42.205Z,80.10
2018-12-31T10:02:09.171Z,80.00
2018-12-31T10:04:36.212Z,80.10
2018-12-31T10:07:03.506Z,79.90
2018-12-31T10:09:30.821Z,80.00
2018-12-31T10:11:57.743Z,79.80
2018-12-31T10:14:25.087Z,80.00
2018-12-31T10:16:52.391Z,80.10
2018-12-31T10:19:19.977Z,80.00
2018-12-31T10:21:47.496Z,80.60
2018-12-31T10:24:14.429Z,80.10
2018-12-31T10:26:41.382Z,80.30
2018-12-31T10:29:08.291Z,80.50
2018-12-31T10:31:35.250Z,80.70
2018-12-31T10:34:02.590Z,80.50
2018-12-31T10:36:29.515Z,80.40
2018-12-31T10:38:56.822Z,80.50
2018-12-31T10:41:23.763Z,80.40
2018-12-31T10:43:50.926Z,80.50
2018-12-31T10:46:18.360Z,81.30
2018-12-31T10:48:45.283Z,80.50
2018-12-31T10:51:12.558Z,80.60
2018-12-31T10:53:40.062Z,80.80
2018-12-31T10:56:06.978Z,81.10
2018-12-31T10:58:34.314Z,80.80
2018-12-31T11:01:01.223Z,81.20
2018-12-31T11:03:28.787Z,81.00
2018-12-31T11:05:56.727Z,81.40
2018-12-31T11:08:23.760Z,82.00
2018-12-31T11:10:51.379Z,81.20
2018-12-31T11:13:19.315Z,81.40
2018-12-31T11:15:46.286Z,81.50
2018-12-31T11:18:13.600Z,81.60
2018-12-31T11:20:41.033Z,81.00
2018-12-31T11:23:07.956Z,81.20
2018-12-31T11:25:34.886Z,81.20
2018-12-31T11:28:01.814Z,81.40
2018-12-31T11:30:28.842Z,81.30
2018-12-31T11:32:55.768Z,81.00
2018-12-31T11:35:22.743Z,81.10
2018-12-31T11:37:49.690Z,81.50
2018-12-31T11:40:16.764Z,81.30
2018-12-31T11:42:43.766Z,81.60
2018-12-31T11:45:11.059Z,81.80
2018-12-31T11:47:38.014Z,81.60
2018-12-31T11:50:05.799Z,81.70
2018-12-31T11:52:32.756Z,81.60
2018-12-31T11:54:59.950Z,81.80
2018-12-31T11:57:27.024Z,81.50
2018-12-31T11:59:53.967Z,81.70
2018-12-31T12:02:23.676Z,81.50
2018-12-31T12:04:50.346Z,81.40
2018-12-31T12:07:17.479Z,81.30
2018-12-31T12:09:44.754Z,81.00
2018-12-31T12:12:11.690Z,80.90
2018-12-31T12:14:38.631Z,80.70
2018-12-31T12:17:05.886Z,80.60
2018-12-31T12:19:32.830Z,80.80
2018-12-31T12:22:00.239Z,80.70
2018-12-31T12:24:27.183Z,80.80
2018-12-31T12:26:54.554Z,80.60
2018-12-31T12:29:21.527Z,80.50
2018-12-31T12:31:48.487Z,80.30
2018-12-31T12:34:16.220Z,79.80
2018-12-31T12:36:43.679Z,80.00
2018-12-31T12:39:10.573Z,79.80
2018-12-31T12:41:37.501Z,79.80
2018-12-31T12:44:04.922Z,79.40
2018-12-31T12:46:32.023Z,79.60
2018-12-31T12:48:59.347Z,79.70
2018-12-31T12:51:26.469Z,80.20
2018-12-31T12:53:53.722Z,80.00
2018-12-31T12:56:21.235Z,79.80
2018-12-31T12:58:48.714Z,79.20
2018-12-31T13:01:15.655Z,79.40
2018-12-31T13:03:42.707Z,79.10
2018-12-31T13:06:09.669Z,79.30
2018-12-31T13:08:36.869Z,79.20
2018-12-31T13:11:03.903Z,79.30
2018-12-31T13:13:30.911Z,79.30
2018-12-31T13:15:58.271Z,79.30
2018-12-31T13:18:25.310Z,79.20
2018-12-31T13:20:52.325Z,79.10
2018-12-31T13:23:20.020Z,79.10
2018-12-31T13:25:47.694Z,78.90
2018-12-31T13:28:14.628Z,78.90
2018-12-31T13:30:41.871Z,78.90
2018-12-31T13:33:09.349Z,78.90
2018-12-31T13:35:36.582Z,79.10
2018-12-31T13:38:03.983Z,78.60
2018-12-31T13:40:31.046Z,78.80
2018-12-31T13:42:58.267Z,79.10
2018-12-31T13:45:25.651Z,79.30
2018-12-31T13:47:52.938Z,79.50
2018-12-31T13:50:19.884Z,79.60
2018-12-31T13:52:47.159Z,79.70
2018-12-31T13:55:15.098Z,80.00
2018-12-31T13:57:42.530Z,79.90
2018-12-31T14:00:09.579Z,80.00
2018-12-31T14:02:37.079Z,80.00
2018-12-31T14:05:04.371Z,80.00
2018-12-31T14:07:31.310Z,80.00
2018-12-31T14:09:58.520Z,79.60
2018-12-31T14:12:25.599Z,79.40
2018-12-31T14:14:52.896Z,79.40
2018-12-31T14:17:20.384Z,79.40
2018-12-31T14:19:48.081Z,79.40
2018-12-31T14:22:15.166Z,79.20
2018-12-31T14:24:42.403Z,79.20
2018-12-31T14:27:09.496Z,79.10
2018-12-31T14:29:37.031Z,78.90
2018-12-31T14:32:04.081Z,78.90
2018-12-31T14:34:31.492Z,79.10
2018-12-31T14:36:58.714Z,79.30
2018-12-31T14:39:25.614Z,79.30
2018-12-31T14:41:52.763Z,79.20
2018-12-31T14:44:20.047Z,79.10
2018-12-31T14:46:47.034Z,79.00
2018-12-31T14:49:14.431Z,79.20
2018-12-31T14:51:41.367Z,78.70
2018-12-31T14:54:08.653Z,78.40
2018-12-31T14:56:36.168Z,78.00
2018-12-31T14:59:03.506Z,77.90
2018-12-31T15:01:31.267Z,77.80
2018-12-31T15:03:58.553Z,77.90
2018-12-31T15:06:26.479Z,78.10
2018-12-31T15:08:54.283Z,78.20
2018-12-31T15:11:21.312Z,78.40
2018-12-31T15:13:48.678Z,78.20
2018-12-31T15:16:15.578Z,78.10
2018-12-31T15:18:43.414Z,78.10
2018-12-31T15:21:10.640Z,77.90
2018-12-31T15:23:37.802Z,77.80
2018-12-31T15:26:04.971Z,77.40
2018-12-31T15:28:31.933Z,77.30
2018-12-31T15:30:59.262Z,77.40
2018-12-31T15:33:29.902Z,77.70
2018-12-31T15:35:57.278Z,77.60
2018-12-31T15:38:24.202Z,77.70
2018-12-31T15:40:51.216Z,77.70
2018-12-31T15:43:18.794Z,77.50
2018-12-31T15:45:46.012Z,77.60
2018-12-31T15:48:13.018Z,77.70
2018-12-31T15:50:40.323Z,77.70
2018-12-31T15:53:07.519Z,77.70
2018-12-31T15:55:34.490Z,77.80
2018-12-31T15:58:01.731Z,77.40
2018-12-31T16:00:29.021Z,77.30
2018-12-31T16:02:56.176Z,77.30
2018-12-31T16:05:23.370Z,77.30
2018-12-31T16:07:50.630Z,77.40
2018-12-31T16:10:17.578Z,77.40
2018-12-31T16:12:45.371Z,77.20
2018-12-31T16:15:12.518Z,77.30
2018-12-31T16:17:39.833Z,77.30
2018-12-31T16:20:07.027Z,77.10
2018-12-31T16:22:34.361Z,77.00
2018-12-31T16:25:02.619Z,76.70
2018-12-31T16:27:30.335Z,76.60
2018-12-31T16:29:59.087Z,76.40
2018-12-31T16:32:26.594Z,76.20
2018-12-31T16:34:53.588Z,76.80
2018-12-31T16:37:20.611Z,76.00
2018-12-31T16:39:48.064Z,76.10
2018-12-31T16:42:15.343Z,76.00
2018-12-31T16:44:42.751Z,76.10
2018-12-31T16:47:09.910Z,76.20
2018-12-31T16:49:36.909Z,76.30
2018-12-31T16:52:04.043Z,76.50
2018-12-31T16:54:31.375Z,76.30
2018-12-31T16:56:58.506Z,76.20
2018-12-31T16:59:26.164Z,76.00
2018-12-31T17:01:53.239Z,75.90
2018-12-31T17:04:20.276Z,75.90
2018-12-31T17:06:47.334Z,75.90
2018-12-31T17:09:14.862Z,76.00
2018-12-31T17:11:42.521Z,75.90
2018-12-31T17:14:09.976Z,76.00
2018-12-31T17:16:36.922Z,75.90
2018-12-31T17:19:04.179Z,76.00
2018-12-31T17:21:31.488Z,76.00
2018-12-31T17:23:58.734Z,76.00
2018-12-31T17:26:26.035Z,75.90
2018-12-31T17:28:53.112Z,76.20
2018-12-31T17:31:20.178Z,76.20
2018-12-31T17:33:47.459Z,76.20
2018-12-31T17:36:14.679Z,76.20
2018-12-31T17:38:42.315Z,76.10
2018-12-31T17:41:09.649Z,75.90
2018-12-31T17:43:36.825Z,75.10
2018-12-31T17:46:04.003Z,75.70
2018-12-31T17:48:31.288Z,75.80
2018-12-31T17:51:17.887Z,75.90
2018-12-31T17:53:44.838Z,75.60
2018-12-31T17:56:12.238Z,75.50
2018-12-31T17:58:39.664Z,75.40
2018-12-31T18:01:06.570Z,75.20
2018-12-31T18:03:34.274Z,74.90
2018-12-31T18:06:01.218Z,74.70
2018-12-31T18:08:28.379Z,74.40
2018-12-31T18:10:55.918Z,74.30
2018-12-31T18:13:23.842Z,74.20
2018-12-31T18:15:50.790Z,74.50
2018-12-31T18:18:17.844Z,74.80
2018-12-31T18:20:45.687Z,74.80
2018-12-31T18:23:12.823Z,74.70
2018-12-31T18:25:41.230Z,74.90
2018-12-31T18:28:08.692Z,75.10
2018-12-31T18:30:36.812Z,74.90
2018-12-31T18:33:03.789Z,75.00
2018-12-31T18:35:30.831Z,74.90
2018-12-31T18:37:58.023Z,75.10
2018-12-31T18:40:25.072Z,75.10
2018-12-31T18:42:52.298Z,75.10
2018-12-31T18:45:20.059Z,74.90
2018-12-31T18:47:47.024Z,74.60
2018-12-31T18:50:14.177Z,74.40
2018-12-31T18:52:41.538Z,74.50
2018-12-31T18:55:08.599Z,74.50
2018-12-31T18:57:35.892Z,74.80
2018-12-31T19:00:04.368Z,74.70
2018-12-31T19:02:31.310Z,74.80
2018-12-31T19:04:58.534Z,74.70
2018-12-31T19:07:25.747Z,74.80
2018-12-31T19:09:52.803Z,74.60
2018-12-31T19:12:20.140Z,74.90
2018-12-31T19:14:47.468Z,74.90
2018-12-31T19:17:14.513Z,74.80
2018-12-31T19:19:41.437Z,74.60
2018-12-31T19:22:08.763Z,74.30
2018-12-31T19:24:35.953Z,74.60
2018-12-31T19:27:02.914Z,74.50
2018-12-31T19:29:30.656Z,74.40
2018-12-31T19:31:58.155Z,74.60
2018-12-31T19:34:25.316Z,74.80
2018-12-31T19:36:52.282Z,74.80
2018-12-31T19:39:19.695Z,75.00
2018-12-31T19:41:46.981Z,75.30
2018-12-31T19:44:14.534Z,75.30
2018-12-31T19:46:41.489Z,75.00
2018-12-31T19:49:08.966Z,74.70
2018-12-31T19:51:36.063Z,74.40
2018-12-31T19:54:04.121Z,74.40
2018-12-31T19:56:31.283Z,74.10
2018-12-31T19:58:58.687Z,74.10
2018-12-31T20:01:25.911Z,74.10
2018-12-31T20:03:52.874Z,73.90
2018-12-31T20:06:21.348Z,74.20
2018-12-31T20:08:48.906Z,74.10
2018-12-31T20:11:16.355Z,74.50
2018-12-31T20:13:44.155Z,74.60
2018-12-31T20:16:11.836Z,74.60
2018-12-31T20:18:41.135Z,74.50
2018-12-31T20:21:08.668Z,74.60
2018-12-31T20:23:36.214Z,74.60
2018-12-31T20:26:04.312Z,74.60
2018-12-31T20:28:31.787Z,74.60
2018-12-31T20:30:58.946Z,74.50
2018-12-31T20:33:25.981Z,74.60
2018-12-31T20:35:53.406Z,74.70
2018-12-31T20:38:20.758Z,74.50
2018-12-31T20:40:48.199Z,74.40
2018-12-31T20:43:16.097Z,74.40
2018-12-31T20:45:43.426Z,74.60
2018-12-31T20:48:10.519Z,74.90
2018-12-31T20:50:38.260Z,75.10
2018-12-31T20:53:05.233Z,75.20
2018-12-31T20:55:32.511Z,75.30
2018-12-31T20:57:59.948Z,75.50
2018-12-31T21:00:27.413Z,75.20
2018-12-31T21:02:55.007Z,75.20
2018-12-31T21:05:21.955Z,75.20
2018-12-31T21:07:49.091Z,75.20
2018-12-31T21:10:16.593Z,75.30
2018-12-31T21:12:44.447Z,75.20
2018-12-31T21:15:11.834Z,75.40
2018-12-31T21:17:39.911Z,75.70
2018-12-31T21:20:07.464Z,75.90
2018-12-31T21:22:34.579Z,76.20
2018-12-31T21:25:02.010Z,76.00
2018-12-31T21:27:30.119Z,75.80
2018-12-31T21:29:57.126Z,76.00
2018-12-31T21:32:24.644Z,76.30
2018-12-31T21:34:51.611Z,77.40
2018-12-31T21:37:19.052Z,76.90
2018-12-31T21:39:47.077Z,77.10
2018-12-31T21:42:15.129Z,77.40
2018-12-31T21:44:42.715Z,77.40
2018-12-31T21:47:10.867Z,77.60
2018-12-31T21:49:38.811Z,77.50
2018-12-31T21:52:07.251Z,77.40
2018-12-31T21:54:34.603Z,77.70
2018-12-31T21:57:02.707Z,77.70
2018-12-31T21:59:30.495Z,77.60
2018-12-31T22:01:57.843Z,77.60
2018-12-31T22:04:24.882Z,77.60
2018-12-31T22:06:52.115Z,77.50
2018-12-31T22:09:19.315Z,77.30
2018-12-31T22:11:46.501Z,77.20
2018-12-31T22:14:13.526Z,77.30
2018-12-31T22:16:40.547Z,77.10
2018-12-31T22:19:07.949Z,76.80
2018-12-31T22:21:34.984Z,76.60
2018-12-31T22:24:02.018Z,76.50
2018-12-31T22:26:29.509Z,76.10
2018-12-31T22:28:56.758Z,75.60
2018-12-31T22:31:23.954Z,75.80
2018-12-31T22:33:51.293Z,76.00
2018-12-31T22:36:18.586Z,75.70
2018-12-31T22:38:45.502Z,76.00
2018-12-31T22:41:12.439Z,76.40
2018-12-31T22:43:39.366Z,76.40
2018-12-31T22:46:06.450Z,76.30
2018-12-31T22:48:33.733Z,76.60
2018-12-31T22:51:01.135Z,77.10
2018-12-31T22:53:28.106Z,77.10
2018-12-31T22:55:55.170Z,77.20
2018-12-31T22:58:22.210Z,77.20
2018-12-31T23:00:49.486Z,77.30
2018-12-31T23:03:17.974Z,77.40
2018-12-31T23:05:45.315Z,76.30
2018-12-31T23:08:12.655Z,76.60
2018-12-31T23:10:39.801Z,76.30
2018-12-31T23:13:06.924Z,76.10
2018-12-31T23:15:35.183Z,75.80
2018-12-31T23:18:02.131Z,75.80
2018-12-31T23:20:29.177Z,75.40
2018-12-31T23:22:56.751Z,74.40
2018-12-31T23:25:23.799Z,74.60
2018-12-31T23:27:51.002Z,75.10
2018-12-31T23:30:18.509Z,75.40
2018-12-31T23:32:45.468Z,74.60
2018-12-31T23:35:12.723Z,74.60
2018-12-31T23:37:42.030Z,74.20
2018-12-31T23:40:09.308Z,73.70
2018-12-31T23:42:36.332Z,73.10
2018-12-31T23:45:03.659Z,72.60
2018-12-31T23:47:30.874Z,72.30
2018-12-31T23:49:57.934Z,71.80
2018-12-31T23:52:26.663Z,71.40
2018-12-31T23:54:53.670Z,71.30
2018-12-31T23:57:20.938Z,71.50
2018-12-31T23:59:48.226Z,71.70
